createdAt,value
2017-11-13T00:00:33.688Z,21.17
2017-11-13T00:03:01.313Z,19.83
2017-11-13T00:05:28.971Z,23.00
2017-11-13T00:07:56.647Z,24.57
2017-11-13T00:10:24.315Z,20.90
2017-11-13T00:12:51.932Z,20.13
2017-11-13T00:15:19.592Z,21.27
2017-11-13T00:17:47.284Z,22.63
2017-11-13T00:20:14.919Z,19.80
2017-11-13T00:22:42.615Z,19.70
2017-11-13T00:25:10.255Z,20.33
2017-11-13T00:27:37.908Z,18.50
2017-11-13T00:30:05.556Z,21.10
2017-11-13T00:32:33.180Z,20.50
2017-11-13T00:35:00.840Z,22.67
2017-11-13T00:37:28.536Z,13.47
2017-11-13T00:39:56.128Z,16.13
2017-11-13T00:42:23.742Z,17.60
2017-11-13T00:44:51.323Z,20.07
2017-11-13T00:47:19.025Z,16.63
2017-11-13T00:49:46.684Z,17.07
2017-11-13T00:52:14.393Z,20.07
2017-11-13T00:54:42.016Z,21.87
2017-11-13T00:57:09.691Z,18.93
2017-11-13T00:59:37.347Z,20.80
2017-11-13T01:02:05.045Z,19.23
2017-11-13T01:04:32.708Z,14.80
2017-11-13T01:07:00.389Z,16.23
2017-11-13T01:09:27.983Z,16.97
2017-11-13T01:11:55.660Z,17.87
2017-11-13T01:14:23.315Z,19.40
2017-11-13T01:16:50.995Z,18.40
2017-11-13T01:19:18.661Z,18.90
2017-11-13T01:21:46.317Z,23.10
2017-11-13T01:24:14.013Z,21.27
2017-11-13T01:26:41.665Z,23.80
2017-11-13T01:29:09.355Z,22.63
2017-11-13T01:31:36.997Z,21.07
2017-11-13T01:34:04.691Z,20.30
2017-11-13T01:36:32.296Z,19.63
2017-11-13T01:38:59.986Z,17.97
2017-11-13T01:41:27.654Z,26.27
2017-11-13T01:43:55.376Z,22.03
2017-11-13T01:46:23.029Z,21.87
2017-11-13T01:48:50.739Z,20.20
2017-11-13T01:51:18.396Z,21.13
2017-11-13T01:53:46.091Z,22.40
2017-11-13T01:56:13.802Z,21.50
2017-11-13T01:58:41.491Z,22.53
2017-11-13T02:01:09.164Z,24.37
2017-11-13T02:03:36.884Z,18.97
2017-11-13T02:06:04.640Z,25.17
2017-11-13T02:08:32.360Z,29.23
2017-11-13T02:11:00.036Z,25.23
2017-11-13T02:13:27.719Z,27.03
2017-11-13T02:15:55.393Z,26.90
2017-11-13T02:18:23.104Z,28.97
2017-11-13T02:20:50.757Z,25.93
2017-11-13T02:23:18.464Z,27.17
2017-11-13T02:25:46.155Z,27.83
2017-11-13T02:28:13.868Z,25.50
2017-11-13T02:30:41.527Z,21.30
2017-11-13T02:33:09.162Z,27.00
2017-11-13T02:35:36.875Z,28.10
2017-11-13T02:38:04.564Z,21.50
2017-11-13T02:40:32.162Z,24.30
2017-11-13T02:42:59.893Z,20.77
2017-11-13T02:45:27.507Z,28.07
2017-11-13T02:47:55.199Z,28.43
2017-11-13T02:50:22.876Z,33.50
2017-11-13T02:52:50.580Z,38.73
2017-11-13T02:55:18.291Z,24.80
2017-11-13T02:57:46.024Z,30.27
2017-11-13T03:00:13.693Z,35.87
2017-11-13T03:02:41.339Z,44.50
2017-11-13T03:05:09.021Z,39.43
2017-11-13T03:07:36.624Z,29.57
2017-11-13T03:10:04.275Z,23.60
2017-11-13T03:12:31.947Z,28.63
2017-11-13T03:14:59.651Z,29.73
2017-11-13T03:17:27.315Z,30.43
2017-11-13T03:19:54.938Z,19.17
2017-11-13T03:22:22.591Z,22.23
2017-11-13T03:24:50.404Z,29.80
2017-11-13T03:27:18.076Z,23.03
2017-11-13T03:29:45.777Z,24.63
2017-11-13T03:32:13.425Z,24.47
2017-11-13T03:34:41.120Z,15.50
2017-11-13T03:37:08.790Z,22.17
2017-11-13T03:39:36.472Z,24.30
2017-11-13T03:42:04.161Z,28.07
2017-11-13T03:44:31.864Z,36.73
2017-11-13T03:46:59.526Z,43.30
2017-11-13T03:49:27.235Z,36.90
2017-11-13T03:51:54.895Z,35.27
2017-11-13T03:54:22.585Z,30.40
2017-11-13T03:56:50.240Z,28.03
2017-11-13T03:59:17.933Z,25.77
2017-11-13T04:01:45.532Z,25.30
2017-11-13T04:04:13.218Z,31.17
2017-11-13T04:06:40.865Z,35.10
2017-11-13T04:09:08.493Z,29.43
2017-11-13T04:11:36.150Z,28.10
2017-11-13T04:14:03.893Z,22.20
2017-11-13T04:16:31.578Z,31.00
2017-11-13T04:18:59.292Z,34.17
2017-11-13T04:21:26.991Z,43.30
2017-11-13T04:23:54.647Z,32.43
2017-11-13T04:26:22.380Z,36.13
2017-11-13T04:28:50.036Z,34.20
2017-11-13T04:31:17.752Z,27.30
2017-11-13T04:33:45.405Z,36.90
2017-11-13T04:36:13.112Z,26.57
2017-11-13T04:38:40.762Z,23.40
2017-11-13T04:41:08.454Z,27.30
2017-11-13T04:43:36.141Z,38.13
2017-11-13T04:46:03.840Z,36.27
2017-11-13T04:48:31.499Z,27.83
2017-11-13T04:50:59.185Z,33.37
2017-11-13T04:53:26.790Z,27.17
2017-11-13T04:55:54.510Z,20.37
2017-11-13T04:58:22.166Z,30.60
2017-11-13T05:00:49.861Z,20.93
2017-11-13T05:03:17.524Z,25.10
2017-11-13T05:05:45.243Z,31.97
2017-11-13T05:08:12.916Z,27.90
2017-11-13T05:10:40.640Z,28.17
2017-11-13T05:13:08.315Z,26.13
2017-11-13T05:15:35.918Z,26.00
2017-11-13T05:18:03.631Z,18.10
2017-11-13T05:20:31.239Z,22.40
2017-11-13T05:22:58.878Z,26.10
2017-11-13T05:25:26.558Z,24.70
2017-11-13T05:27:54.274Z,27.43
2017-11-13T05:30:21.957Z,24.97
2017-11-13T05:32:49.657Z,21.57
2017-11-13T05:35:17.316Z,25.53
2017-11-13T05:37:44.949Z,23.20
2017-11-13T05:40:12.537Z,22.20
2017-11-13T05:42:40.163Z,22.13
2017-11-13T05:45:07.754Z,26.20
2017-11-13T05:47:35.417Z,26.00
2017-11-13T05:50:03.012Z,25.00
2017-11-13T05:52:30.639Z,24.13
2017-11-13T05:54:58.237Z,30.27
2017-11-13T05:57:25.873Z,36.87
2017-11-13T05:59:53.465Z,34.70
2017-11-13T06:02:21.106Z,34.37
2017-11-13T06:04:48.709Z,30.93
2017-11-13T06:07:16.332Z,28.43
2017-11-13T06:09:43.993Z,28.73
2017-11-13T06:12:11.597Z,28.67
2017-11-13T06:14:39.249Z,30.37
2017-11-13T06:17:06.832Z,25.47
2017-11-13T06:19:34.476Z,25.33
2017-11-13T06:22:02.073Z,31.53
2017-11-13T06:24:29.700Z,29.57
2017-11-13T06:26:57.297Z,32.70
2017-11-13T06:29:24.938Z,31.47
2017-11-13T06:31:52.531Z,25.50
2017-11-13T06:34:20.184Z,30.10
2017-11-13T06:36:47.781Z,29.90
2017-11-13T06:39:15.429Z,19.50
2017-11-13T06:41:43.069Z,20.50
2017-11-13T06:44:10.694Z,27.17
2017-11-13T06:46:38.300Z,17.53
2017-11-13T06:49:05.922Z,26.13
2017-11-13T06:51:33.516Z,23.53
2017-11-13T06:54:01.348Z,20.13
2017-11-13T06:56:28.973Z,26.03
2017-11-13T06:58:56.586Z,27.00
2017-11-13T07:01:24.300Z,27.40
2017-11-13T07:03:51.982Z,26.50
2017-11-13T07:06:19.682Z,28.97
2017-11-13T07:08:47.356Z,23.83
2017-11-13T07:11:14.981Z,26.60
2017-11-13T07:13:42.631Z,26.30
2017-11-13T07:16:10.273Z,38.07
2017-11-13T07:18:37.942Z,26.80
2017-11-13T07:21:05.616Z,25.60
2017-11-13T07:23:33.226Z,24.50
2017-11-13T07:26:00.935Z,30.10
2017-11-13T07:28:28.544Z,37.93
2017-11-13T07:30:56.184Z,27.60
2017-11-13T07:33:23.789Z,42.30
2017-11-13T07:35:51.394Z,34.60
2017-11-13T07:38:19.025Z,40.40
2017-11-13T07:40:46.656Z,34.77
2017-11-13T07:43:14.302Z,31.10
2017-11-13T07:45:41.975Z,42.20
2017-11-13T07:48:09.675Z,23.47
2017-11-13T07:50:37.328Z,23.87
2017-11-13T07:53:05.052Z,21.13
2017-11-13T07:55:32.715Z,30.33
2017-11-13T07:58:00.367Z,16.77
2017-11-13T08:00:28.031Z,19.90
2017-11-13T08:02:55.767Z,17.90
2017-11-13T08:05:23.438Z,24.17
2017-11-13T08:07:51.161Z,26.97
2017-11-13T08:10:18.822Z,24.80
2017-11-13T08:12:46.474Z,27.77
2017-11-13T08:15:14.076Z,25.87
2017-11-13T08:17:41.801Z,28.03
2017-11-13T08:20:09.454Z,24.90
2017-11-13T08:22:37.133Z,24.60
2017-11-13T08:25:05.760Z,17.87
2017-11-13T08:27:33.452Z,26.23
2017-11-13T08:30:01.143Z,24.77
2017-11-13T08:32:28.917Z,17.47
2017-11-13T08:34:56.614Z,20.90
2017-11-13T08:37:24.277Z,26.57
2017-11-13T08:39:51.963Z,20.60
2017-11-13T08:42:19.650Z,18.67
2017-11-13T08:44:47.361Z,24.60
2017-11-13T08:47:14.973Z,29.60
2017-11-13T08:49:42.619Z,26.20
2017-11-13T08:52:10.292Z,30.83
2017-11-13T08:54:37.931Z,17.40
2017-11-13T08:57:05.589Z,15.60
2017-11-13T08:59:33.272Z,23.20
2017-11-13T09:02:00.931Z,22.80
2017-11-13T09:04:28.587Z,18.73
2017-11-13T09:06:56.256Z,13.00
2017-11-13T09:09:23.968Z,19.67
2017-11-13T09:11:51.668Z,19.70
2017-11-13T09:14:19.344Z,14.97
2017-11-13T09:16:46.972Z,8.23
2017-11-13T09:19:14.638Z,18.63
2017-11-13T09:21:42.268Z,21.00
2017-11-13T09:24:10.761Z,21.20
2017-11-13T09:26:38.463Z,22.43
2017-11-13T09:29:06.118Z,15.73
2017-11-13T09:31:33.754Z,17.53
2017-11-13T09:34:01.420Z,14.90
2017-11-13T09:36:29.123Z,18.73
2017-11-13T09:38:56.793Z,19.50
2017-11-13T09:41:24.495Z,14.10
2017-11-13T09:43:52.110Z,16.27
2017-11-13T09:46:19.745Z,16.80
2017-11-13T09:48:47.331Z,17.10
2017-11-13T09:51:15.036Z,12.27
2017-11-13T09:53:42.697Z,16.90
2017-11-13T09:56:10.391Z,19.50
2017-11-13T09:58:38.055Z,17.53
2017-11-13T10:01:05.801Z,16.07
2017-11-13T10:03:33.474Z,15.70
2017-11-13T10:06:01.067Z,14.10
2017-11-13T10:08:28.766Z,18.73
2017-11-13T10:10:56.371Z,12.83
2017-11-13T10:13:24.017Z,16.27
2017-11-13T10:15:51.701Z,16.90
2017-11-13T10:18:19.356Z,19.47
2017-11-13T10:20:47.037Z,16.83
2017-11-13T10:23:14.740Z,18.07
2017-11-13T10:25:42.436Z,19.37
2017-11-13T10:28:10.126Z,16.53
2017-11-13T10:30:37.797Z,17.93
2017-11-13T10:33:05.513Z,16.97
2017-11-13T10:35:33.130Z,18.47
2017-11-13T10:38:00.816Z,16.03
2017-11-13T10:40:28.466Z,17.70
2017-11-13T10:42:56.210Z,17.60
2017-11-13T10:45:23.879Z,18.43
2017-11-13T10:47:51.576Z,16.97
2017-11-13T10:50:19.261Z,17.60
2017-11-13T10:52:46.919Z,16.03
2017-11-13T10:55:14.638Z,16.67
2017-11-13T10:57:42.240Z,14.43
2017-11-13T11:00:09.902Z,16.47
2017-11-13T11:02:37.521Z,11.57
2017-11-13T11:05:05.172Z,9.57
2017-11-13T11:07:32.767Z,16.00
2017-11-13T11:10:00.449Z,9.07
2017-11-13T11:12:29.997Z,12.27
2017-11-13T11:15:03.334Z,7.80
2017-11-13T11:17:46.732Z,8.87
2017-11-13T11:23:34.037Z,9.40
2017-11-13T11:29:19.522Z,7.30
2017-11-13T11:31:48.079Z,8.03
2017-11-13T11:37:29.478Z,7.07
2017-11-13T11:39:57.132Z,7.87
2017-11-13T11:42:24.725Z,10.00
2017-11-13T11:44:58.276Z,7.77
2017-11-13T11:47:25.891Z,5.83
2017-11-13T11:49:53.545Z,7.00
2017-11-13T11:52:21.207Z,5.30
2017-11-13T11:57:59.875Z,4.60
2017-11-13T12:00:27.524Z,4.50
2017-11-13T12:02:55.150Z,5.43
2017-11-13T12:05:22.850Z,4.00
2017-11-13T12:07:50.482Z,7.57
2017-11-13T12:10:18.119Z,4.10
2017-11-13T12:12:45.846Z,3.80
2017-11-13T12:15:13.509Z,5.00
2017-11-13T12:17:41.141Z,4.00
2017-11-13T12:20:08.794Z,3.13
2017-11-13T12:22:36.480Z,3.00
2017-11-13T12:25:05.156Z,5.40
2017-11-13T12:27:32.839Z,3.10
2017-11-13T12:30:00.504Z,4.10
2017-11-13T12:32:28.208Z,2.93
2017-11-13T12:34:55.967Z,3.07
2017-11-13T12:37:23.651Z,3.40
2017-11-13T12:39:51.299Z,3.87
2017-11-13T12:42:19.025Z,4.23
2017-11-13T12:44:46.700Z,4.30
2017-11-13T12:47:14.404Z,3.20
2017-11-13T12:49:42.039Z,2.30
2017-11-13T12:52:09.677Z,3.50
2017-11-13T12:54:37.340Z,3.20
2017-11-13T12:57:05.005Z,3.90
2017-11-13T12:59:32.621Z,3.43
2017-11-13T13:02:00.336Z,5.90
2017-11-13T13:04:28.004Z,3.63
2017-11-13T13:06:55.702Z,7.13
2017-11-13T13:09:23.385Z,4.30
2017-11-13T13:11:51.151Z,3.17
2017-11-13T13:14:18.826Z,4.57
2017-11-13T13:16:46.476Z,3.30
2017-11-13T13:19:14.131Z,3.43
2017-11-13T13:21:41.733Z,2.80
2017-11-13T13:24:09.367Z,4.70
2017-11-13T13:26:36.960Z,3.33
2017-11-13T13:29:04.585Z,3.43
2017-11-13T13:31:32.166Z,3.60
2017-11-13T13:33:59.789Z,2.80
2017-11-13T13:36:27.449Z,3.00
2017-11-13T13:38:55.084Z,1.70
2017-11-13T13:41:22.746Z,3.90
2017-11-13T13:43:50.481Z,3.53
2017-11-13T13:46:18.141Z,2.40
2017-11-13T13:48:45.768Z,2.33
2017-11-13T13:51:13.461Z,2.00
2017-11-13T13:53:41.178Z,3.40
2017-11-13T13:56:08.838Z,2.47
2017-11-13T13:58:36.560Z,2.97
2017-11-13T14:01:04.226Z,4.13
2017-11-13T14:03:31.953Z,1.87
2017-11-13T14:05:59.638Z,3.33
2017-11-13T14:08:27.363Z,5.43
2017-11-13T14:10:55.047Z,3.43
2017-11-13T14:13:22.739Z,7.73
2017-11-13T14:15:50.448Z,3.00
2017-11-13T14:18:18.119Z,4.20
2017-11-13T14:20:45.735Z,3.23
2017-11-13T14:23:13.405Z,3.80
2017-11-13T14:25:41.097Z,2.43
2017-11-13T14:28:08.777Z,4.10
2017-11-13T14:30:36.466Z,2.60
2017-11-13T14:33:04.141Z,2.43
2017-11-13T14:35:31.823Z,3.80
2017-11-13T14:37:59.509Z,4.27
2017-11-13T14:40:27.177Z,4.30
2017-11-13T14:42:54.824Z,3.40
2017-11-13T14:45:22.571Z,3.87
2017-11-13T14:47:50.159Z,4.00
2017-11-13T14:50:17.781Z,2.97
2017-11-13T14:52:45.454Z,5.40
2017-11-13T14:55:13.081Z,3.40
2017-11-13T14:57:40.661Z,4.13
2017-11-13T15:00:08.302Z,3.97
2017-11-13T15:02:35.924Z,3.10
2017-11-13T15:05:03.538Z,5.73
2017-11-13T15:07:31.172Z,3.20
2017-11-13T15:09:58.819Z,4.30
2017-11-13T15:12:26.444Z,3.83
2017-11-13T15:14:54.035Z,9.33
2017-11-13T15:17:21.717Z,4.27
2017-11-13T15:19:49.385Z,5.67
2017-11-13T15:22:17.097Z,4.63
2017-11-13T15:24:44.785Z,6.33
2017-11-13T15:27:12.414Z,7.73
2017-11-13T15:29:40.106Z,4.90
2017-11-13T15:32:07.769Z,5.57
2017-11-13T15:34:35.426Z,5.23
2017-11-13T15:37:03.085Z,7.67
2017-11-13T15:39:30.678Z,4.83
2017-11-13T15:41:58.322Z,4.50
2017-11-13T15:44:25.902Z,3.50
2017-11-13T15:46:53.537Z,3.47
2017-11-13T15:49:21.119Z,4.50
2017-11-13T15:51:48.816Z,3.90
2017-11-13T15:54:16.471Z,4.43
2017-11-13T15:56:44.146Z,4.57
2017-11-13T15:59:11.736Z,5.10
2017-11-13T16:01:39.325Z,4.87
2017-11-13T16:04:07.014Z,4.70
2017-11-13T16:06:34.655Z,5.50
2017-11-13T16:09:02.362Z,5.53
2017-11-13T16:11:29.972Z,7.50
2017-11-13T16:13:57.641Z,4.87
2017-11-13T16:16:25.271Z,6.37
2017-11-13T16:18:52.903Z,7.43
2017-11-13T16:21:20.475Z,8.40
2017-11-13T16:23:48.111Z,7.67
2017-11-13T16:26:15.708Z,6.13
2017-11-13T16:28:43.359Z,10.13
2017-11-13T16:31:10.966Z,9.70
2017-11-13T16:33:38.591Z,13.00
2017-11-13T16:36:06.183Z,10.60
2017-11-13T16:38:33.809Z,6.53
2017-11-13T16:41:01.428Z,9.37
2017-11-13T16:43:29.052Z,7.63
2017-11-13T16:45:56.653Z,7.90
2017-11-13T16:48:24.275Z,10.30
2017-11-13T16:50:51.892Z,11.20
2017-11-13T16:53:19.535Z,11.03
2017-11-13T16:55:47.180Z,9.10
2017-11-13T16:58:14.816Z,7.33
2017-11-13T17:00:42.477Z,12.00
2017-11-13T17:03:10.120Z,8.83
2017-11-13T17:05:37.723Z,11.47
2017-11-13T17:08:05.432Z,12.63
2017-11-13T17:10:33.126Z,12.27
2017-11-13T17:13:00.789Z,8.73
2017-11-13T17:15:28.444Z,9.20
2017-11-13T17:17:56.058Z,10.43
2017-11-13T17:20:23.679Z,10.47
2017-11-13T17:22:51.264Z,10.10
2017-11-13T17:25:18.899Z,25.83
2017-11-13T17:27:46.498Z,18.00
2017-11-13T17:30:14.124Z,21.80
2017-11-13T17:32:41.723Z,14.53
2017-11-13T17:35:09.355Z,14.97
2017-11-13T17:37:36.943Z,11.60
2017-11-13T17:40:04.557Z,15.03
2017-11-13T17:42:32.177Z,12.70
2017-11-13T17:44:59.817Z,9.70
2017-11-13T17:47:27.430Z,19.40
2017-11-13T17:49:55.061Z,16.00
2017-11-13T17:52:22.671Z,18.53
2017-11-13T17:54:50.330Z,15.27
2017-11-13T17:57:17.938Z,15.17
2017-11-13T17:59:45.539Z,13.80
2017-11-13T18:02:13.202Z,15.70
2017-11-13T18:04:40.800Z,15.23
2017-11-13T18:07:08.495Z,12.53
2017-11-13T18:09:36.157Z,14.70
2017-11-13T18:12:03.846Z,7.93
2017-11-13T18:14:31.516Z,9.80
2017-11-13T18:16:59.229Z,9.07
2017-11-13T18:19:26.896Z,10.87
2017-11-13T18:21:54.544Z,11.63
2017-11-13T18:24:22.195Z,8.17
2017-11-13T18:26:49.900Z,10.90
2017-11-13T18:29:17.571Z,8.37
2017-11-13T18:31:45.263Z,8.77
2017-11-13T18:34:12.857Z,9.77
2017-11-13T18:36:40.557Z,12.33
2017-11-13T18:39:08.238Z,12.60
2017-11-13T18:41:35.969Z,13.90
2017-11-13T18:44:03.583Z,11.13
2017-11-13T18:46:31.237Z,12.47
2017-11-13T18:48:58.837Z,12.33
2017-11-13T18:51:26.434Z,16.63
2017-11-13T18:53:54.088Z,12.23
2017-11-13T18:56:21.680Z,13.00
2017-11-13T18:58:49.340Z,13.63
2017-11-13T19:01:16.922Z,11.23
2017-11-13T19:03:44.620Z,9.70
2017-11-13T19:06:12.285Z,11.73
2017-11-13T19:08:39.916Z,13.30
2017-11-13T19:11:07.572Z,11.80
2017-11-13T19:13:35.304Z,12.13
2017-11-13T19:16:03.019Z,13.60
2017-11-13T19:18:30.728Z,12.37
2017-11-13T19:20:58.402Z,11.33
2017-11-13T19:23:26.085Z,11.10
2017-11-13T19:25:53.725Z,11.83
2017-11-13T19:28:21.412Z,9.97
2017-11-13T19:30:49.112Z,9.30
2017-11-13T19:33:16.830Z,11.47
2017-11-13T19:35:44.530Z,10.73
2017-11-13T19:38:12.259Z,10.43
2017-11-13T19:40:39.957Z,13.33
2017-11-13T19:43:07.714Z,12.67
2017-11-13T19:45:35.383Z,16.57
2017-11-13T19:48:03.084Z,18.80
2017-11-13T19:50:30.760Z,17.60
2017-11-13T19:52:58.412Z,13.27
2017-11-13T19:55:26.102Z,14.13
2017-11-13T19:57:53.748Z,20.33
2017-11-13T20:00:21.456Z,13.93
2017-11-13T20:02:49.103Z,21.60
2017-11-13T20:05:16.794Z,13.90
2017-11-13T20:07:44.467Z,16.53
2017-11-13T20:10:12.188Z,18.37
2017-11-13T20:12:39.861Z,10.67
2017-11-13T20:15:07.567Z,13.37
2017-11-13T20:17:35.211Z,12.23
2017-11-13T20:20:02.895Z,12.40
2017-11-13T20:22:30.538Z,12.77
2017-11-13T20:24:58.237Z,13.33
2017-11-13T20:27:25.887Z,13.90
2017-11-13T20:29:53.569Z,11.30
2017-11-13T20:32:21.227Z,18.60
2017-11-13T20:34:48.920Z,12.70
2017-11-13T20:37:16.578Z,15.00
2017-11-13T20:39:44.245Z,13.60
2017-11-13T20:42:11.940Z,12.47
2017-11-13T20:44:39.645Z,13.73
2017-11-13T20:47:07.340Z,13.40
2017-11-13T20:49:35.029Z,11.93
2017-11-13T20:52:02.761Z,11.37
2017-11-13T20:54:30.424Z,10.40
2017-11-13T20:56:58.130Z,10.90
2017-11-13T20:59:25.788Z,14.17
2017-11-13T21:01:53.509Z,12.17
2017-11-13T21:04:21.176Z,11.70
2017-11-13T21:06:48.864Z,10.07
2017-11-13T21:09:16.461Z,12.70
2017-11-13T21:11:44.135Z,11.37
2017-11-13T21:14:11.800Z,11.40
2017-11-13T21:16:39.480Z,9.90
2017-11-13T21:19:07.081Z,11.63
2017-11-13T21:21:34.750Z,11.83
2017-11-13T21:24:02.440Z,13.30
2017-11-13T21:26:30.044Z,13.80
2017-11-13T21:28:57.751Z,17.67
2017-11-13T21:31:25.404Z,14.43
2017-11-13T21:33:53.109Z,13.70
2017-11-13T21:36:20.763Z,10.67
2017-11-13T21:38:48.400Z,12.97
2017-11-13T21:41:16.020Z,12.37
2017-11-13T21:43:43.769Z,15.83
2017-11-13T21:46:11.448Z,14.93
2017-11-13T21:48:39.159Z,11.80
2017-11-13T21:51:06.845Z,10.10
2017-11-13T21:53:34.552Z,8.17
2017-11-13T21:56:02.229Z,8.13
2017-11-13T21:58:29.910Z,11.80
2017-11-13T22:00:57.618Z,13.13
2017-11-13T22:03:25.342Z,11.63
2017-11-13T22:05:53.085Z,14.03
2017-11-13T22:08:20.867Z,10.23
2017-11-13T22:10:48.516Z,10.83
2017-11-13T22:13:16.195Z,16.10
2017-11-13T22:15:43.852Z,12.50
2017-11-13T22:18:11.520Z,15.17
2017-11-13T22:20:39.238Z,12.10
2017-11-13T22:23:06.935Z,14.30
2017-11-13T22:25:34.603Z,10.27
2017-11-13T22:28:02.291Z,8.53
2017-11-13T22:30:30.015Z,8.80
2017-11-13T22:32:57.729Z,12.83
2017-11-13T22:35:25.411Z,12.97
2017-11-13T22:37:53.558Z,8.90
2017-11-13T22:40:21.301Z,13.70
2017-11-13T22:42:49.049Z,7.90
2017-11-13T22:45:16.784Z,11.67
2017-11-13T22:47:44.500Z,8.13
2017-11-13T22:50:12.200Z,7.47
2017-11-13T22:52:39.954Z,13.03
2017-11-13T22:55:07.643Z,8.20
2017-11-13T22:57:35.366Z,7.37
2017-11-13T23:00:03.104Z,8.67
2017-11-13T23:02:30.775Z,7.67
2017-11-13T23:04:58.484Z,7.57
2017-11-13T23:07:26.222Z,9.60
2017-11-13T23:09:53.952Z,7.60
2017-11-13T23:12:21.669Z,9.63
2017-11-13T23:14:49.393Z,7.37
2017-11-13T23:17:17.137Z,8.70
2017-11-13T23:19:44.854Z,10.57
2017-11-13T23:22:12.564Z,9.13
2017-11-13T23:24:40.235Z,10.03
2017-11-13T23:27:07.949Z,7.93
2017-11-13T23:29:35.650Z,8.53
2017-11-13T23:32:03.378Z,7.70
2017-11-13T23:34:31.120Z,7.87
2017-11-13T23:36:58.852Z,8.20
2017-11-13T23:39:26.598Z,11.30
2017-11-13T23:41:54.282Z,11.40
2017-11-13T23:44:22.024Z,10.03
2017-11-13T23:46:49.811Z,11.77
2017-11-13T23:49:17.623Z,10.13
2017-11-13T23:51:45.402Z,12.80
2017-11-13T23:54:13.246Z,9.87
2017-11-13T23:56:41.453Z,11.57
2017-11-13T23:59:09.319Z,10.20
